sensor_id;sensor_type;location;lat;lon;timestamp;pressure;altitude;pressure_sealevel;temperature;humidity
69957;BME280;57283;54.816;9.482;2022-11-02T00:01:04;100839.06;;;11.92;100.00
69957;BME280;57283;54.816;9.482;2022-11-02T00:03:33;100836.44;;;11.92;100.00
69957;BME280;57283;54.816;9.482;2022-11-02T00:06:01;100832.28;;;11.86;100.00
69957;BME280;57283;54.816;9.482;2022-11-02T00:08:28;100836.59;;;11.87;100.00
69957;BME280;57283;54.816;9.482;2022-11-02T00:10:56;100836.81;;;11.79;100.00
69957;BME280;57283;54.816;9.482;2022-11-02T00:13:24;100834.84;;;11.87;100.00
69957;BME280;57283;54.816;9.482;2022-11-02T00:15:53;100828.78;;;11.85;100.00
69957;BME280;57283;54.816;9.482;2022-11-02T00:18:21;100828.50;;;11.65;100.00
69957;BME280;57283;54.816;9.482;2022-11-02T00:20:49;100831.72;;;11.73;100.00
69957;BME280;57283;54.816;9.482;2022-11-02T00:23:17;100831.84;;;11.70;100.00
69957;BME280;57283;54.816;9.482;2022-11-02T00:25:46;100826.69;;;11.67;100.00
69957;BME280;57283;54.816;9.482;2022-11-02T00:28:15;100812.81;;;11.65;100.00
69957;BME280;57283;54.816;9.482;2022-11-02T00:30:43;100818.19;;;11.59;100.00
69957;BME280;57283;54.816;9.482;2022-11-02T00:33:12;100820.66;;;11.65;100.00
69957;BME280;57283;54.816;9.482;2022-11-02T00:35:40;100811.16;;;11.61;100.00
69957;BME280;57283;54.816;9.482;2022-11-02T00:38:10;100804.13;;;11.63;100.00
69957;BME280;57283;54.816;9.482;2022-11-02T00:40:38;100793.84;;;11.57;100.00
69957;BME280;57283;54.816;9.482;2022-11-02T00:43:05;100789.63;;;11.53;100.00
69957;BME280;57283;54.816;9.482;2022-11-02T00:45:33;100795.75;;;11.52;100.00
69957;BME280;57283;54.816;9.482;2022-11-02T00:48:01;100805.94;;;11.61;100.00
69957;BME280;57283;54.816;9.482;2022-11-02T00:50:30;100730.66;;;11.13;100.00
69957;BME280;57283;54.816;9.482;2022-11-02T00:52:58;100795.47;;;11.61;100.00
69957;BME280;57283;54.816;9.482;2022-11-02T00:55:26;100702.81;;;11.12;100.00
69957;BME280;57283;54.816;9.482;2022-11-02T00:57:53;100779.47;;;11.42;100.00
69957;BME280;57283;54.816;9.482;2022-11-02T01:00:21;100779.78;;;11.61;100.00
69957;BME280;57283;54.816;9.482;2022-11-02T01:02:49;100768.63;;;11.56;100.00
69957;BME280;57283;54.816;9.482;2022-11-02T01:05:16;100766.91;;;11.55;100.00
69957;BME280;57283;54.816;9.482;2022-11-02T01:07:45;100781.50;;;11.62;100.00
69957;BME280;57283;54.816;9.482;2022-11-02T01:10:13;100786.81;;;11.59;100.00
69957;BME280;57283;54.816;9.482;2022-11-02T01:12:41;100765.88;;;11.59;100.00
69957;BME280;57283;54.816;9.482;2022-11-02T01:15:09;100780.94;;;11.52;100.00
69957;BME280;57283;54.816;9.482;2022-11-02T01:17:37;100724.88;;;11.32;100.00
69957;BME280;57283;54.816;9.482;2022-11-02T01:20:06;100766.78;;;11.58;100.00
69957;BME280;57283;54.816;9.482;2022-11-02T01:22:34;100768.47;;;11.61;100.00
69957;BME280;57283;54.816;9.482;2022-11-02T01:25:03;100783.28;;;11.60;100.00
69957;BME280;57283;54.816;9.482;2022-11-02T01:27:31;100773.66;;;11.62;100.00
69957;BME280;57283;54.816;9.482;2022-11-02T01:29:59;100771.94;;;11.61;100.00
69957;BME280;57283;54.816;9.482;2022-11-02T01:32:28;100774.53;;;11.61;100.00
69957;BME280;57283;54.816;9.482;2022-11-02T01:34:56;100771.25;;;11.56;100.00
69957;BME280;57283;54.816;9.482;2022-11-02T01:37:23;100755.88;;;11.44;100.00
69957;BME280;57283;54.816;9.482;2022-11-02T01:39:51;100755.81;;;11.47;100.00
69957;BME280;57283;54.816;9.482;2022-11-02T01:42:22;100755.88;;;11.44;100.00
69957;BME280;57283;54.816;9.482;2022-11-02T01:44:51;100755.81;;;11.47;100.00
69957;BME280;57283;54.816;9.482;2022-11-02T01:47:22;100754.09;;;11.46;100.00
69957;BME280;57283;54.816;9.482;2022-11-02T01:49:54;100753.28;;;11.44;100.00
69957;BME280;57283;54.816;9.482;2022-11-02T01:52:26;100746.13;;;11.50;100.00
69957;BME280;57283;54.816;9.482;2022-11-02T01:54:57;100744.31;;;11.52;100.00
69957;BME280;57283;54.816;9.482;2022-11-02T01:57:28;100745.44;;;11.44;100.00
69957;BME280;57283;54.816;9.482;2022-11-02T02:00:06;100746.03;;;11.53;100.00
69957;BME280;57283;54.816;9.482;2022-11-02T02:02:38;100745.16;;;11.53;100.00
69957;BME280;57283;54.816;9.482;2022-11-02T02:05:10;100689.28;;;11.28;100.00
69957;BME280;57283;54.816;9.482;2022-11-02T02:07:39;100732.69;;;11.61;100.00
69957;BME280;57283;54.816;9.482;2022-11-02T02:10:08;100728.19;;;11.66;100.00
69957;BME280;57283;54.816;9.482;2022-11-02T02:12:38;100735.16;;;11.66;100.00
69957;BME280;57283;54.816;9.482;2022-11-02T02:15:08;100733.53;;;11.62;100.00
69957;BME280;57283;54.816;9.482;2022-11-02T02:17:46;100738.91;;;11.57;100.00
69957;BME280;57283;54.816;9.482;2022-11-02T02:20:24;100721.66;;;11.51;100.00
69957;BME280;57283;54.816;9.482;2022-11-02T02:26:32;100715.09;;;11.66;100.00
69957;BME280;57283;54.816;9.482;2022-11-02T02:29:08;100704.81;;;11.60;100.00
69957;BME280;57283;54.816;9.482;2022-11-02T02:31:42;100704.13;;;11.55;100.00
69957;BME280;57283;54.816;9.482;2022-11-02T02:34:16;100711.75;;;11.61;100.00
69957;BME280;57283;54.816;9.482;2022-11-02T02:36:48;100710.72;;;11.67;100.00
69957;BME280;57283;54.816;9.482;2022-11-02T02:39:22;100699.59;;;11.60;100.00
69957;BME280;57283;54.816;9.482;2022-11-02T02:41:57;100711.50;;;11.70;100.00
69957;BME280;57283;54.816;9.482;2022-11-02T02:44:30;100680.72;;;11.50;100.00
69957;BME280;57283;54.816;9.482;2022-11-02T02:47:03;100710.13;;;11.57;100.00
69957;BME280;57283;54.816;9.482;2022-11-02T02:49:36;100688.75;;;11.44;100.00
69957;BME280;57283;54.816;9.482;2022-11-02T02:52:04;100705.94;;;11.53;100.00
69957;BME280;57283;54.816;9.482;2022-11-02T02:54:36;100687.81;;;11.47;100.00
69957;BME280;57283;54.816;9.482;2022-11-02T02:57:07;100701.88;;;11.43;100.00
69957;BME280;57283;54.816;9.482;2022-11-02T02:59:39;100710.53;;;11.45;100.00
69957;BME280;57283;54.816;9.482;2022-11-02T03:02:12;100715.97;;;11.39;100.00
69957;BME280;57283;54.816;9.482;2022-11-02T03:04:41;100702.03;;;11.38;100.00
69957;BME280;57283;54.816;9.482;2022-11-02T03:07:11;100685.75;;;11.29;100.00
69957;BME280;57283;54.816;9.482;2022-11-02T03:09:43;100700.53;;;11.30;100.00
69957;BME280;57283;54.816;9.482;2022-11-02T03:12:20;100694.41;;;11.31;100.00
69957;BME280;57283;54.816;9.482;2022-11-02T03:15:00;100689.72;;;11.12;100.00
69957;BME280;57283;54.816;9.482;2022-11-02T03:17:31;100702.63;;;11.18;100.00
69957;BME280;57283;54.816;9.482;2022-11-02T03:20:04;100690.47;;;11.17;100.00
69957;BME280;57283;54.816;9.482;2022-11-02T03:22:48;100691.31;;;11.18;100.00
69957;BME280;57283;54.816;9.482;2022-11-02T03:25:22;100692.25;;;11.15;100.00
69957;BME280;57283;54.816;9.482;2022-11-02T03:27:55;100694.00;;;11.15;100.00
69957;BME280;57283;54.816;9.482;2022-11-02T03:30:27;100668.38;;;10.98;100.00
69957;BME280;57283;54.816;9.482;2022-11-02T03:33:03;100693.19;;;11.13;100.00
69957;BME280;57283;54.816;9.482;2022-11-02T03:35:35;100683.44;;;11.19;100.00
69957;BME280;57283;54.816;9.482;2022-11-02T03:38:09;100652.50;;;11.06;100.00
69957;BME280;57283;54.816;9.482;2022-11-02T03:40:41;100686.66;;;11.28;100.00
69957;BME280;57283;54.816;9.482;2022-11-02T03:43:10;100681.28;;;11.32;100.00
69957;BME280;57283;54.816;9.482;2022-11-02T03:45:43;100691.88;;;11.28;100.00
69957;BME280;57283;54.816;9.482;2022-11-02T03:48:13;100693.97;;;11.16;100.00
69957;BME280;57283;54.816;9.482;2022-11-02T03:50:44;100704.50;;;11.13;100.00
69957;BME280;57283;54.816;9.482;2022-11-02T03:53:17;100662.28;;;10.98;100.00
69957;BME280;57283;54.816;9.482;2022-11-02T03:55:49;100696.50;;;11.19;100.00
69957;BME280;57283;54.816;9.482;2022-11-02T03:58:18;100709.66;;;11.16;100.00
69957;BME280;57283;54.816;9.482;2022-11-02T04:00:49;100697.56;;;11.12;100.00
69957;BME280;57283;54.816;9.482;2022-11-02T04:03:21;100659.72;;;10.67;100.00
69957;BME280;57283;54.816;9.482;2022-11-02T04:05:50;100677.22;;;10.63;100.00
69957;BME280;57283;54.816;9.482;2022-11-02T04:08:23;100684.00;;;10.70;100.00
69957;BME280;57283;54.816;9.482;2022-11-02T04:10:54;100696.25;;;10.68;100.00
69957;BME280;57283;54.816;9.482;2022-11-02T04:13:40;100700.50;;;10.72;100.00
69957;BME280;57283;54.816;9.482;2022-11-02T04:16:26;100681.69;;;10.60;100.00
69957;BME280;57283;54.816;9.482;2022-11-02T04:18:54;100685.91;;;10.64;100.00
69957;BME280;57283;54.816;9.482;2022-11-02T04:21:40;100690.31;;;10.62;100.00
69957;BME280;57283;54.816;9.482;2022-11-02T04:24:27;100676.94;;;10.41;100.00
69957;BME280;57283;54.816;9.482;2022-11-02T04:27:13;100668.38;;;10.38;100.00
69957;BME280;57283;54.816;9.482;2022-11-02T04:29:46;100687.25;;;10.47;100.00
69957;BME280;57283;54.816;9.482;2022-11-02T04:32:15;100680.16;;;10.53;100.00
69957;BME280;57283;54.816;9.482;2022-11-02T04:35:04;100682.75;;;10.53;100.00
69957;BME280;57283;54.816;9.482;2022-11-02T04:37:37;100671.50;;;10.51;100.00
69957;BME280;57283;54.816;9.482;2022-11-02T04:40:22;100673.34;;;10.47;100.00
69957;BME280;57283;54.816;9.482;2022-11-02T04:42:50;100671.56;;;10.47;100.00
69957;BME280;57283;54.816;9.482;2022-11-02T04:45:18;100675.09;;;10.46;100.00
69957;BME280;57283;54.816;9.482;2022-11-02T04:47:47;100675.09;;;10.46;100.00
69957;BME280;57283;54.816;9.482;2022-11-02T04:50:15;100667.06;;;10.54;100.00
69957;BME280;57283;54.816;9.482;2022-11-02T04:52:43;100631.94;;;10.33;100.00
69957;BME280;57283;54.816;9.482;2022-11-02T04:55:10;100622.13;;;10.41;100.00
69957;BME280;57283;54.816;9.482;2022-11-02T04:57:43;100647.06;;;10.53;100.00
69957;BME280;57283;54.816;9.482;2022-11-02T05:00:12;100638.28;;;10.56;100.00
69957;BME280;57283;54.816;9.482;2022-11-02T05:02:40;100639.88;;;10.60;100.00
69957;BME280;57283;54.816;9.482;2022-11-02T05:05:10;100609.97;;;10.40;100.00
69957;BME280;57283;54.816;9.482;2022-11-02T05:07:38;100649.44;;;10.61;100.00
69957;BME280;57283;54.816;9.482;2022-11-02T05:10:06;100648.81;;;10.53;100.00
69957;BME280;57283;54.816;9.482;2022-11-02T05:12:34;100653.22;;;10.51;100.00
69957;BME280;57283;54.816;9.482;2022-11-02T05:15:02;100656.91;;;10.42;100.00
69957;BME280;57283;54.816;9.482;2022-11-02T05:17:30;100654.28;;;10.43;100.00
69957;BME280;57283;54.816;9.482;2022-11-02T05:19:58;100659.50;;;10.43;100.00
69957;BME280;57283;54.816;9.482;2022-11-02T05:22:27;100657.69;;;10.45;100.00
69957;BME280;57283;54.816;9.482;2022-11-02T05:24:55;100652.41;;;10.48;100.00
69957;BME280;57283;54.816;9.482;2022-11-02T05:27:22;100662.84;;;10.48;100.00
69957;BME280;57283;54.816;9.482;2022-11-02T05:29:50;100656.81;;;10.46;100.00
69957;BME280;57283;54.816;9.482;2022-11-02T05:32:18;100633.81;;;10.28;100.00
69957;BME280;57283;54.816;9.482;2022-11-02T05:34:46;100645.81;;;10.35;100.00
69957;BME280;57283;54.816;9.482;2022-11-02T05:37:13;100656.91;;;10.42;100.00
69957;BME280;57283;54.816;9.482;2022-11-02T05:39:43;100650.13;;;10.36;100.00
69957;BME280;57283;54.816;9.482;2022-11-02T05:42:15;100669.22;;;10.38;100.00
69957;BME280;57283;54.816;9.482;2022-11-02T05:44:43;100669.75;;;10.51;100.00
69957;BME280;57283;54.816;9.482;2022-11-02T05:47:11;100636.19;;;10.37;100.00
69957;BME280;57283;54.816;9.482;2022-11-02T05:49:38;100665.66;;;10.41;100.00
69957;BME280;57283;54.816;9.482;2022-11-02T05:52:06;100662.06;;;10.45;100.00
69957;BME280;57283;54.816;9.482;2022-11-02T05:54:34;100666.50;;;10.41;100.00
69957;BME280;57283;54.816;9.482;2022-11-02T05:57:03;100666.50;;;10.41;100.00
69957;BME280;57283;54.816;9.482;2022-11-02T05:59:30;100627.81;;;10.25;100.00
69957;BME280;57283;54.816;9.482;2022-11-02T06:01:58;100658.72;;;10.40;100.00
69957;BME280;57283;54.816;9.482;2022-11-02T06:04:26;100657.84;;;10.39;100.00
69957;BME280;57283;54.816;9.482;2022-11-02T06:06:54;100660.16;;;10.52;100.00
69957;BME280;57283;54.816;9.482;2022-11-02T06:09:21;100661.91;;;10.51;100.00
69957;BME280;57283;54.816;9.482;2022-11-02T06:11:49;100655.16;;;10.42;100.00
69957;BME280;57283;54.816;9.482;2022-11-02T06:14:18;100654.63;;;10.31;100.00
69957;BME280;57283;54.816;9.482;2022-11-02T06:16:46;100656.25;;;10.35;100.00
69957;BME280;57283;54.816;9.482;2022-11-02T06:19:13;100655.50;;;10.30;100.00
69957;BME280;57283;54.816;9.482;2022-11-02T06:21:41;100650.28;;;10.30;100.00
69957;BME280;57283;54.816;9.482;2022-11-02T06:24:13;100652.00;;;10.31;100.00
69957;BME280;57283;54.816;9.482;2022-11-02T06:26:42;100647.75;;;10.27;100.00
69957;BME280;57283;54.816;9.482;2022-11-02T06:29:12;100647.69;;;10.30;100.00
69957;BME280;57283;54.816;9.482;2022-11-02T06:31:41;100630.56;;;10.20;100.00
69957;BME280;57283;54.816;9.482;2022-11-02T06:34:09;100639.88;;;10.29;100.00
69957;BME280;57283;54.816;9.482;2022-11-02T06:36:36;100636.69;;;10.18;100.00
69957;BME280;57283;54.816;9.482;2022-11-02T06:39:04;100637.50;;;10.21;100.00
69957;BME280;57283;54.816;9.482;2022-11-02T06:41:32;100647.00;;;10.22;100.00
69957;BME280;57283;54.816;9.482;2022-11-02T06:43:59;100644.50;;;10.19;100.00
69957;BME280;57283;54.816;9.482;2022-11-02T06:46:27;100641.00;;;10.20;100.00
69957;BME280;57283;54.816;9.482;2022-11-02T06:48:56;100641.59;;;10.30;100.00
69957;BME280;57283;54.816;9.482;2022-11-02T06:51:24;100650.75;;;10.44;100.00
69957;BME280;57283;54.816;9.482;2022-11-02T06:53:52;100650.50;;;10.55;100.00
69957;BME280;57283;54.816;9.482;2022-11-02T06:56:19;100648.38;;;10.68;100.00
69957;BME280;57283;54.816;9.482;2022-11-02T06:58:47;100639.72;;;10.66;100.00
69957;BME280;57283;54.816;9.482;2022-11-02T07:01:15;100651.34;;;10.85;100.00
69957;BME280;57283;54.816;9.482;2022-11-02T07:03:43;100654.50;;;10.96;100.00
69957;BME280;57283;54.816;9.482;2022-11-02T07:06:12;100651.00;;;10.97;100.00
69957;BME280;57283;54.816;9.482;2022-11-02T07:08:40;100628.97;;;11.06;100.00
69957;BME280;57283;54.816;9.482;2022-11-02T07:11:12;100574.09;;;10.76;100.00
69957;BME280;57283;54.816;9.482;2022-11-02T07:13:40;100625.91;;;11.19;100.00
69957;BME280;57283;54.816;9.482;2022-11-02T07:16:08;100651.75;;;11.29;100.00
69957;BME280;57283;54.816;9.482;2022-11-02T07:18:36;100641.69;;;11.16;100.00
69957;BME280;57283;54.816;9.482;2022-11-02T07:21:04;100650.94;;;11.27;100.00
69957;BME280;57283;54.816;9.482;2022-11-02T07:23:33;100645.28;;;11.12;100.00
69957;BME280;57283;54.816;9.482;2022-11-02T07:26:01;100666.94;;;11.17;100.00
69957;BME280;57283;54.816;9.482;2022-11-02T07:28:30;100673.22;;;11.10;100.00
69957;BME280;57283;54.816;9.482;2022-11-02T07:30:57;100672.13;;;11.19;100.00
69957;BME280;57283;54.816;9.482;2022-11-02T07:33:25;100668.44;;;11.25;100.00
69957;BME280;57283;54.816;9.482;2022-11-02T07:35:53;100657.63;;;11.37;100.00
69957;BME280;57283;54.816;9.482;2022-11-02T07:38:21;100658.31;;;11.42;100.00
69957;BME280;57283;54.816;9.482;2022-11-02T07:40:50;100667.19;;;11.38;100.00
69957;BME280;57283;54.816;9.482;2022-11-02T07:43:18;100678.00;;;11.26;100.00
69957;BME280;57283;54.816;9.482;2022-11-02T07:45:45;100662.25;;;10.99;100.00
69957;BME280;57283;54.816;9.482;2022-11-02T07:48:13;100667.47;;;10.99;100.00
69957;BME280;57283;54.816;9.482;2022-11-02T07:50:41;100640.13;;;10.81;100.00
69957;BME280;57283;54.816;9.482;2022-11-02T07:53:09;100636.53;;;10.86;100.00
69957;BME280;57283;54.816;9.482;2022-11-02T07:55:38;100655.75;;;11.12;100.00
69957;BME280;57283;54.816;9.482;2022-11-02T07:58:09;100655.84;;;11.09;100.00
69957;BME280;57283;54.816;9.482;2022-11-02T08:00:39;100658.09;;;11.22;100.00
69957;BME280;57283;54.816;9.482;2022-11-02T08:03:08;100632.41;;;11.06;100.00
69957;BME280;57283;54.816;9.482;2022-11-02T08:05:39;100657.28;;;11.19;100.00
69957;BME280;57283;54.816;9.482;2022-11-02T08:08:11;100662.84;;;11.37;100.00
69957;BME280;57283;54.816;9.482;2022-11-02T08:10:40;100668.03;;;11.38;100.00
69957;BME280;57283;54.816;9.482;2022-11-02T08:13:11;100658.44;;;11.39;100.00
69957;BME280;57283;54.816;9.482;2022-11-02T08:15:39;100666.00;;;11.20;100.00
69957;BME280;57283;54.816;9.482;2022-11-02T08:18:11;100665.94;;;11.22;100.00
69957;BME280;57283;54.816;9.482;2022-11-02T08:20:39;100639.72;;;10.95;100.00
69957;BME280;57283;54.816;9.482;2022-11-02T08:23:08;100659.34;;;11.08;100.00
69957;BME280;57283;54.816;9.482;2022-11-02T08:25:37;100610.91;;;10.69;100.00
69957;BME280;57283;54.816;9.482;2022-11-02T08:28:07;100666.66;;;10.97;100.00
69957;BME280;57283;54.816;9.482;2022-11-02T08:30:38;100668.22;;;11.04;100.00
69957;BME280;57283;54.816;9.482;2022-11-02T08:33:08;100669.53;;;11.17;100.00
69957;BME280;57283;54.816;9.482;2022-11-02T08:35:39;100666.59;;;11.28;100.00
69957;BME280;57283;54.816;9.482;2022-11-02T08:38:08;100664.78;;;11.58;100.00
69957;BME280;57283;54.816;9.482;2022-11-02T08:40:36;100672.19;;;11.72;100.00
69957;BME280;57283;54.816;9.482;2022-11-02T08:43:06;100644.19;;;11.47;100.00
69957;BME280;57283;54.816;9.482;2022-11-02T08:45:35;100661.22;;;11.33;100.00
69957;BME280;57283;54.816;9.482;2022-11-02T08:48:25;100661.31;;;11.30;100.00
69957;BME280;57283;54.816;9.482;2022-11-02T08:50:53;100661.81;;;11.41;100.00
69957;BME280;57283;54.816;9.482;2022-11-02T08:53:22;100658.13;;;11.48;100.00
69957;BME280;57283;54.816;9.482;2022-11-02T08:55:49;100665.84;;;11.52;100.00
69957;BME280;57283;54.816;9.482;2022-11-02T08:58:17;100658.28;;;11.43;100.00
69957;BME280;57283;54.816;9.482;2022-11-02T09:00:45;100655.09;;;11.34;100.00
69957;BME280;57283;54.816;9.482;2022-11-02T09:03:14;100651.63;;;11.33;100.00
69957;BME280;57283;54.816;9.482;2022-11-02T09:05:55;100652.25;;;11.13;100.00
69957;BME280;57283;54.816;9.482;2022-11-02T09:08:23;100662.97;;;11.04;100.00
69957;BME280;57283;54.816;9.482;2022-11-02T09:10:57;100660.41;;;11.03;100.00
69957;BME280;57283;54.816;9.482;2022-11-02T09:13:25;100685.28;;;11.16;100.00
69957;BME280;57283;54.816;9.482;2022-11-02T09:15:55;100657.47;;;11.13;100.00
69957;BME280;57283;54.816;9.482;2022-11-02T09:18:23;100663.50;;;11.15;100.00
69957;BME280;57283;54.816;9.482;2022-11-02T09:20:52;100702.59;;;11.20;100.00
69957;BME280;57283;54.816;9.482;2022-11-02T09:23:20;100667.03;;;10.85;100.00
69957;BME280;57283;54.816;9.482;2022-11-02T09:25:49;100710.97;;;11.02;100.00
69957;BME280;57283;54.816;9.482;2022-11-02T09:28:17;100728.97;;;10.81;100.00
69957;BME280;57283;54.816;9.482;2022-11-02T09:30:44;100724.00;;;10.72;100.00
69957;BME280;57283;54.816;9.482;2022-11-02T09:33:12;100699.03;;;10.30;100.00
69957;BME280;57283;54.816;9.482;2022-11-02T09:35:42;100649.78;;;9.82;100.00
69957;BME280;57283;54.816;9.482;2022-11-02T09:38:12;100729.78;;;10.19;100.00
69957;BME280;57283;54.816;9.482;2022-11-02T09:40:43;100724.78;;;10.08;100.00
69957;BME280;57283;54.816;9.482;2022-11-02T09:43:19;100709.69;;;9.87;100.00
69957;BME280;57283;54.816;9.482;2022-11-02T09:45:59;100716.75;;;9.82;100.00
69957;BME280;57283;54.816;9.482;2022-11-02T09:48:31;100723.75;;;9.79;100.00
69957;BME280;57283;54.816;9.482;2022-11-02T09:51:04;100697.94;;;9.69;100.00
69957;BME280;57283;54.816;9.482;2022-11-02T09:53:42;100688.50;;;9.63;100.00
69957;BME280;57283;54.816;9.482;2022-11-02T09:56:16;100728.59;;;9.95;100.00
69957;BME280;57283;54.816;9.482;2022-11-02T09:58:50;100727.56;;;10.02;100.00
69957;BME280;57283;54.816;9.482;2022-11-02T10:01:30;100705.94;;;9.97;100.00
69957;BME280;57283;54.816;9.482;2022-11-02T10:04:19;100717.69;;;10.13;100.00
69957;BME280;57283;54.816;9.482;2022-11-02T10:06:55;100722.63;;;10.25;100.00
69957;BME280;57283;54.816;9.482;2022-11-02T10:09:28;100722.34;;;10.37;100.00
69957;BME280;57283;54.816;9.482;2022-11-02T10:12:08;100709.09;;;10.43;100.00
69957;BME280;57283;54.816;9.482;2022-11-02T10:14:45;100729.50;;;10.62;100.00
69957;BME280;57283;54.816;9.482;2022-11-02T10:17:18;100702.84;;;10.51;100.00
69957;BME280;57283;54.816;9.482;2022-11-02T10:19:52;100725.66;;;10.75;100.00
69957;BME280;57283;54.816;9.482;2022-11-02T10:22:24;100706.75;;;10.67;100.00
69957;BME280;57283;54.816;9.482;2022-11-02T10:24:56;100723.78;;;10.80;100.00
69957;BME280;57283;54.816;9.482;2022-11-02T10:27:27;100727.94;;;10.87;100.00
69957;BME280;57283;54.816;9.482;2022-11-02T10:29:58;100744.59;;;10.83;100.00
69957;BME280;57283;54.816;9.482;2022-11-02T10:32:29;100737.00;;;10.74;100.00
69957;BME280;57283;54.816;9.482;2022-11-02T10:34:58;100710.31;;;10.63;100.00
69957;BME280;57283;54.816;9.482;2022-11-02T10:37:57;100747.63;;;10.68;100.00
69957;BME280;57283;54.816;9.482;2022-11-02T10:40:43;100735.09;;;10.48;100.00
69957;BME280;57283;54.816;9.482;2022-11-02T10:43:26;100749.75;;;10.54;100.00
69957;BME280;57283;54.816;9.482;2022-11-02T10:46:09;100730.88;;;10.42;100.00
69957;BME280;57283;54.816;9.482;2022-11-02T10:48:46;100758.31;;;10.59;100.00
69957;BME280;57283;54.816;9.482;2022-11-02T10:51:18;100759.03;;;10.65;100.00
69957;BME280;57283;54.816;9.482;2022-11-02T10:53:48;100767.94;;;10.57;100.00
69957;BME280;57283;54.816;9.482;2022-11-02T10:56:20;100777.88;;;10.42;100.00
69957;BME280;57283;54.816;9.482;2022-11-02T10:58:56;100796.59;;;10.26;100.00
69957;BME280;57283;54.816;9.482;2022-11-02T11:01:28;100786.94;;;10.29;100.00
69957;BME280;57283;54.816;9.482;2022-11-02T11:03:58;100795.78;;;10.22;100.00
69957;BME280;57283;54.816;9.482;2022-11-02T11:06:29;100809.94;;;10.12;100.00
69957;BME280;57283;54.816;9.482;2022-11-02T11:08:59;100815.44;;;10.00;100.00
69957;BME280;57283;54.816;9.482;2022-11-02T11:11:30;100821.88;;;9.85;100.00
69957;BME280;57283;54.816;9.482;2022-11-02T11:14:02;100779.22;;;9.49;100.00
69957;BME280;57283;54.816;9.482;2022-11-02T11:16:52;100834.25;;;9.75;100.00
69957;BME280;57283;54.816;9.482;2022-11-02T11:19:22;100785.63;;;9.34;100.00
69957;BME280;57283;54.816;9.482;2022-11-02T11:22:00;100819.78;;;9.62;100.00
69957;BME280;57283;54.816;9.482;2022-11-02T11:24:32;100822.34;;;9.64;100.00
69957;BME280;57283;54.816;9.482;2022-11-02T11:27:14;100829.09;;;9.72;100.00
69957;BME280;57283;54.816;9.482;2022-11-02T11:29:49;100833.50;;;9.70;100.00
69957;BME280;57283;54.816;9.482;2022-11-02T11:32:20;100833.41;;;9.73;100.00
69957;BME280;57283;54.816;9.482;2022-11-02T11:34:58;100826.75;;;9.60;100.00
69957;BME280;57283;54.816;9.482;2022-11-02T11:37:27;100842.00;;;9.78;100.00
69957;BME280;57283;54.816;9.482;2022-11-02T11:39:58;100837.47;;;9.88;100.00
69957;BME280;57283;54.816;9.482;2022-11-02T11:42:31;100827.81;;;9.92;100.00
69957;BME280;57283;54.816;9.482;2022-11-02T11:45:03;100833.41;;;10.13;100.00
69957;BME280;57283;54.816;9.482;2022-11-02T11:47:34;100835.72;;;10.27;100.00
69957;BME280;57283;54.816;9.482;2022-11-02T11:50:05;100835.78;;;10.24;100.00
69957;BME280;57283;54.816;9.482;2022-11-02T11:52:47;100832.31;;;10.24;100.00
69957;BME280;57283;54.816;9.482;2022-11-02T11:55:33;100848.66;;;10.32;100.00
69957;BME280;57283;54.816;9.482;2022-11-02T11:58:12;100828.75;;;10.26;100.00
69957;BME280;57283;54.816;9.482;2022-11-02T12:00:41;100845.78;;;10.42;100.00
69957;BME280;57283;54.816;9.482;2022-11-02T12:03:11;100872.38;;;10.58;100.00
69957;BME280;57283;54.816;9.482;2022-11-02T12:05:48;100873.41;;;10.53;100.00
69957;BME280;57283;54.816;9.482;2022-11-02T12:08:31;100893.53;;;10.47;100.00
69957;BME280;57283;54.816;9.482;2022-11-02T12:11:11;100881.00;;;10.25;100.00
69957;BME280;57283;54.816;9.482;2022-11-02T12:14:03;100913.06;;;10.31;100.00
69957;BME280;57283;54.816;9.482;2022-11-02T12:16:54;100911.28;;;10.33;100.00
69957;BME280;57283;54.816;9.482;2022-11-02T12:19:31;100909.69;;;10.26;100.00
69957;BME280;57283;54.816;9.482;2022-11-02T12:22:12;100836.00;;;9.75;100.00
69957;BME280;57283;54.816;9.482;2022-11-02T12:24:56;100857.25;;;9.97;100.00
69957;BME280;57283;54.816;9.482;2022-11-02T12:27:36;100903.28;;;10.39;100.00
69957;BME280;57283;54.816;9.482;2022-11-02T12:30:17;100885.94;;;10.38;100.00
69957;BME280;57283;54.816;9.482;2022-11-02T12:35:49;100932.03;;;10.75;100.00
69957;BME280;57283;54.816;9.482;2022-11-02T12:38:33;100931.13;;;10.76;100.00
69957;BME280;57283;54.816;9.482;2022-11-02T12:41:07;100923.31;;;10.76;100.00
69957;BME280;57283;54.816;9.482;2022-11-02T12:43:38;100945.56;;;11.25;100.00
69957;BME280;57283;54.816;9.482;2022-11-02T12:46:20;100954.38;;;11.22;100.00
69957;BME280;57283;54.816;9.482;2022-11-02T12:49:00;100949.06;;;11.25;100.00
69957;BME280;57283;54.816;9.482;2022-11-02T12:51:38;100959.34;;;11.31;100.00
69957;BME280;57283;54.816;9.482;2022-11-02T12:54:10;100966.34;;;11.31;100.00
69957;BME280;57283;54.816;9.482;2022-11-02T12:56:43;100966.22;;;11.35;100.00
69957;BME280;57283;54.816;9.482;2022-11-02T12:59:17;100963.97;;;11.22;100.00
69957;BME280;57283;54.816;9.482;2022-11-02T13:01:48;100981.47;;;11.19;100.00
69957;BME280;57283;54.816;9.482;2022-11-02T13:04:21;100926.63;;;10.82;100.00
69957;BME280;57283;54.816;9.482;2022-11-02T13:07:00;100984.25;;;11.12;100.00
69957;BME280;57283;54.816;9.482;2022-11-02T13:09:33;100995.19;;;11.28;100.00